Time;durP1;ratioP1;P1;durP2;ratioP2;P2;SDS_P1;SDS_P2;PMS_P1;PMS_P2;Temp;Humidity;BMP_temperature;BMP_pressure;BME280_temperature;BME280_humidity;BME280_pressure;Samples;Min_cycle;Max_cycle;Signal;HPM_P1;HPM_P2
2022/03/07 00:01:59;;;;;;;0.20;0.20;;;;;;;;;;4947428;28;20198;-71
2022/03/07 00:04:28;;;;;;;0.20;0.20;;;;;;;;;;4931853;28;20646;-71
2022/03/07 00:06:56;;;;;;;1.03;1.03;;;;;;;;;;4940215;28;20199;-71
2022/03/07 00:09:23;;;;;;;0.00;0.00;;;;;;;;;;4940881;28;20227;-71
2022/03/07 00:11:51;;;;;;;0.00;0.00;;;;;;;;;;4933966;28;20208;-71
2022/03/07 00:14:18;;;;;;;0.00;0.00;;;;;;;;;;4938475;28;20207;-70
2022/03/07 00:16:45;;;;;;;0.07;0.07;;;;;;;;;;4945749;28;20752;-71
2022/03/07 00:19:13;;;;;;;0.00;0.00;;;;;;;;;;4937500;28;20207;-71
2022/03/07 00:21:42;;;;;;;0.03;0.03;;;;;;;;;;4948135;28;20209;-71
2022/03/07 00:24:10;;;;;;;0.00;0.00;;;;;;;;;;4942524;28;20207;-71
2022/03/07 00:26:37;;;;;;;0.00;0.00;;;;;;;;;;4948095;28;20588;-71
2022/03/07 00:29:05;;;;;;;0.30;0.30;;;;;;;;;;4945065;28;20314;-72
2022/03/07 00:31:32;;;;;;;0.00;0.00;;;;;;;;;;4951113;28;20207;-70
2022/03/07 00:33:59;;;;;;;0.00;0.00;;;;;;;;;;4949501;28;20695;-71
2022/03/07 00:36:27;;;;;;;0.00;0.00;;;;;;;;;;4948818;28;20203;-71
2022/03/07 00:38:56;;;;;;;0.37;0.37;;;;;;;;;;4947708;28;20199;-70
2022/03/07 00:41:23;;;;;;;2.63;0.47;;;;;;;;;;4950069;28;20199;-70
2022/03/07 00:43:51;;;;;;;0.83;0.83;;;;;;;;;;4949948;28;20207;-68
2022/03/07 00:46:18;;;;;;;0.20;0.20;;;;;;;;;;4946949;28;20199;-71
2022/03/07 00:48:45;;;;;;;0.20;0.20;;;;;;;;;;4944518;28;20219;-71
2022/03/07 00:51:13;;;;;;;2.27;2.17;;;;;;;;;;4950856;28;20207;-70
2022/03/07 00:53:40;;;;;;;0.00;0.00;;;;;;;;;;4945089;28;20844;-72
2022/03/07 00:56:10;;;;;;;0.27;0.27;;;;;;;;;;4946437;28;20210;-71
2022/03/07 00:58:37;;;;;;;0.00;0.00;;;;;;;;;;4945757;28;20223;-69
2022/03/07 01:01:05;;;;;;;0.77;0.77;;;;;;;;;;4947325;28;20199;-71
2022/03/07 01:03:32;;;;;;;0.47;0.20;;;;;;;;;;4944754;28;20210;-71
2022/03/07 01:05:59;;;;;;;0.00;0.00;;;;;;;;;;4951110;28;20225;-72
2022/03/07 01:08:27;;;;;;;0.63;0.47;;;;;;;;;;4945344;28;20231;-71
2022/03/07 01:10:55;;;;;;;0.00;0.00;;;;;;;;;;4943903;28;20207;-71
2022/03/07 01:13:25;;;;;;;0.20;0.20;;;;;;;;;;4951829;28;20660;-71
2022/03/07 01:15:52;;;;;;;0.03;0.03;;;;;;;;;;4947387;28;20286;-71
2022/03/07 01:18:20;;;;;;;0.00;0.00;;;;;;;;;;4943061;28;20230;-71
2022/03/07 01:20:47;;;;;;;1.23;0.40;;;;;;;;;;4939765;28;20207;-71
2022/03/07 01:23:15;;;;;;;0.00;0.00;;;;;;;;;;4938947;28;20199;-69
2022/03/07 01:25:42;;;;;;;0.23;0.23;;;;;;;;;;4943467;28;20206;-70
2022/03/07 01:28:10;;;;;;;0.20;0.20;;;;;;;;;;4941590;28;20196;-71
2022/03/07 01:30:39;;;;;;;0.00;0.00;;;;;;;;;;4947792;28;20202;-71
2022/03/07 01:33:06;;;;;;;0.00;0.00;;;;;;;;;;4950879;28;20195;-71
2022/03/07 01:35:33;;;;;;;0.00;0.00;;;;;;;;;;4944232;28;20202;-72
2022/03/07 01:38:01;;;;;;;0.00;0.00;;;;;;;;;;4943990;28;20262;-71
2022/03/07 01:40:28;;;;;;;0.00;0.00;;;;;;;;;;4948770;28;20625;-69
2022/03/07 01:42:55;;;;;;;0.00;0.00;;;;;;;;;;4949617;28;20209;-70
2022/03/07 01:45:23;;;;;;;0.00;0.00;;;;;;;;;;4946881;28;20230;-70
2022/03/07 01:47:52;;;;;;;0.00;0.00;;;;;;;;;;4948078;28;20281;-70
2022/03/07 01:50:20;;;;;;;0.00;0.00;;;;;;;;;;4943429;28;20226;-71
2022/03/07 01:52:50;;;;;;;0.00;0.00;;;;;;;;;;4946797;28;20208;-68
2022/03/07 01:55:18;;;;;;;0.00;0.00;;;;;;;;;;4942205;28;21128;-69
2022/03/07 01:57:47;;;;;;;0.57;0.57;;;;;;;;;;4941020;28;20203;-70
2022/03/07 02:00:16;;;;;;;0.00;0.00;;;;;;;;;;4943422;28;20290;-71
2022/03/07 02:02:44;;;;;;;0.00;0.00;;;;;;;;;;4945764;28;20673;-71
2022/03/07 02:05:13;;;;;;;0.00;0.00;;;;;;;;;;4945639;28;20680;-71
2022/03/07 02:07:41;;;;;;;0.00;0.00;;;;;;;;;;4937740;28;20577;-71
2022/03/07 02:10:09;;;;;;;0.00;0.00;;;;;;;;;;4939949;28;20250;-71
2022/03/07 02:12:37;;;;;;;0.00;0.00;;;;;;;;;;4943636;28;20577;-71
2022/03/07 02:15:05;;;;;;;0.00;0.00;;;;;;;;;;4946810;28;20785;-71
2022/03/07 02:17:32;;;;;;;0.10;0.00;;;;;;;;;;4951347;28;20210;-70
2022/03/07 02:20:00;;;;;;;0.40;0.40;;;;;;;;;;4942078;28;20199;-71
2022/03/07 02:22:29;;;;;;;0.70;0.70;;;;;;;;;;4945264;28;20195;-71
2022/03/07 02:24:57;;;;;;;0.00;0.00;;;;;;;;;;4947337;28;20199;-70
2022/03/07 02:27:24;;;;;;;0.40;0.17;;;;;;;;;;4947188;28;20225;-70
2022/03/07 02:29:51;;;;;;;1.40;0.97;;;;;;;;;;4943966;28;20723;-70
2022/03/07 02:32:20;;;;;;;0.10;0.10;;;;;;;;;;4947519;28;20210;-70
2022/03/07 02:34:48;;;;;;;0.30;0.17;;;;;;;;;;4945640;28;20211;-72
2022/03/07 02:37:15;;;;;;;0.00;0.00;;;;;;;;;;4947001;28;20207;-71
2022/03/07 02:39:44;;;;;;;1.37;0.73;;;;;;;;;;4945906;28;20199;-71
2022/03/07 02:42:12;;;;;;;0.63;0.27;;;;;;;;;;4945548;28;20214;-71
2022/03/07 02:44:40;;;;;;;0.00;0.00;;;;;;;;;;4944652;28;20731;-71
2022/03/07 02:47:07;;;;;;;0.33;0.33;;;;;;;;;;4942366;28;20207;-69
2022/03/07 02:49:35;;;;;;;0.60;0.60;;;;;;;;;;4944048;28;20581;-71
2022/03/07 02:52:03;;;;;;;0.40;0.20;;;;;;;;;;4944234;28;20206;-69
2022/03/07 02:54:31;;;;;;;0.07;0.07;;;;;;;;;;4944779;28;20230;-69
2022/03/07 02:56:59;;;;;;;1.33;1.23;;;;;;;;;;4948163;28;20218;-70
2022/03/07 02:59:27;;;;;;;0.10;0.10;;;;;;;;;;4939191;28;20572;-71
2022/03/07 03:01:54;;;;;;;0.00;0.00;;;;;;;;;;4947208;28;20202;-70
2022/03/07 03:04:21;;;;;;;0.20;0.20;;;;;;;;;;4945101;28;20199;-70
2022/03/07 03:06:49;;;;;;;4.73;4.40;;;;;;;;;;4947186;28;20211;-71
2022/03/07 03:09:16;;;;;;;0.00;0.00;;;;;;;;;;4947621;28;20227;-70
2022/03/07 03:11:44;;;;;;;0.00;0.00;;;;;;;;;;4947614;28;20203;-71
2022/03/07 03:14:12;;;;;;;0.00;0.00;;;;;;;;;;4941735;28;20199;-70
2022/03/07 03:16:40;;;;;;;0.00;0.00;;;;;;;;;;4944542;28;20232;-71
2022/03/07 03:19:07;;;;;;;0.13;0.13;;;;;;;;;;4942333;28;20684;-71
2022/03/07 03:21:35;;;;;;;0.00;0.00;;;;;;;;;;4943690;28;20206;-71
2022/03/07 03:24:02;;;;;;;0.00;0.00;;;;;;;;;;4944842;28;20638;-71
2022/03/07 03:26:29;;;;;;;0.00;0.00;;;;;;;;;;4938527;28;20207;-70
2022/03/07 03:28:57;;;;;;;0.00;0.00;;;;;;;;;;4946183;28;20210;-70
2022/03/07 03:31:26;;;;;;;0.00;0.00;;;;;;;;;;4943792;28;20206;-69
2022/03/07 03:33:54;;;;;;;0.00;0.00;;;;;;;;;;4942208;28;20692;-70
2022/03/07 03:36:21;;;;;;;0.00;0.00;;;;;;;;;;4944431;28;20238;-68
2022/03/07 03:38:48;;;;;;;0.00;0.00;;;;;;;;;;4940823;28;20616;-70
2022/03/07 03:41:16;;;;;;;0.00;0.00;;;;;;;;;;4944449;28;20549;-71
2022/03/07 03:43:43;;;;;;;0.00;0.00;;;;;;;;;;4940748;28;20192;-70
2022/03/07 03:46:10;;;;;;;0.00;0.00;;;;;;;;;;4945809;28;20542;-69
2022/03/07 03:48:39;;;;;;;0.00;0.00;;;;;;;;;;4947117;28;20207;-68
2022/03/07 03:51:07;;;;;;;0.00;0.00;;;;;;;;;;4944561;28;20226;-69
2022/03/07 03:53:34;;;;;;;0.00;0.00;;;;;;;;;;4948743;28;20203;-70
2022/03/07 03:56:02;;;;;;;0.00;0.00;;;;;;;;;;4940796;28;20199;-70
2022/03/07 03:58:29;;;;;;;0.00;0.00;;;;;;;;;;4938314;28;20210;-71
2022/03/07 04:00:57;;;;;;;0.00;0.00;;;;;;;;;;4942874;28;20793;-71
2022/03/07 04:03:25;;;;;;;0.00;0.00;;;;;;;;;;4943274;28;20207;-71
2022/03/07 04:05:54;;;;;;;0.00;0.00;;;;;;;;;;4940491;28;20564;-71
2022/03/07 04:08:22;;;;;;;0.00;0.00;;;;;;;;;;4939802;28;20657;-69
2022/03/07 04:10:49;;;;;;;0.60;0.37;;;;;;;;;;4941931;28;20724;-69
2022/03/07 04:13:16;;;;;;;0.10;0.10;;;;;;;;;;4940622;28;20199;-71
2022/03/07 04:15:44;;;;;;;0.20;0.20;;;;;;;;;;4942963;28;20604;-70
2022/03/07 04:18:11;;;;;;;0.00;0.00;;;;;;;;;;4939849;28;20199;-71
2022/03/07 04:20:38;;;;;;;0.00;0.00;;;;;;;;;;4940348;28;20207;-71
2022/03/07 04:23:07;;;;;;;1.60;0.87;;;;;;;;;;4948337;28;20659;-69
2022/03/07 04:25:35;;;;;;;0.00;0.00;;;;;;;;;;4942987;28;20210;-71
2022/03/07 04:28:02;;;;;;;0.00;0.00;;;;;;;;;;4939415;28;20200;-71
2022/03/07 04:30:29;;;;;;;0.00;0.00;;;;;;;;;;4940150;28;20240;-69
2022/03/07 04:32:57;;;;;;;0.00;0.00;;;;;;;;;;4940575;28;20266;-70
2022/03/07 04:35:24;;;;;;;0.20;0.17;;;;;;;;;;4944641;28;20206;-69
2022/03/07 04:37:51;;;;;;;0.00;0.00;;;;;;;;;;4942249;28;20207;-69
2022/03/07 04:40:20;;;;;;;0.00;0.00;;;;;;;;;;4940936;28;20211;-69
2022/03/07 04:42:48;;;;;;;0.00;0.00;;;;;;;;;;4946458;28;20207;-69
2022/03/07 04:45:15;;;;;;;0.00;0.00;;;;;;;;;;4938435;28;20665;-70
2022/03/07 04:47:42;;;;;;;0.00;0.00;;;;;;;;;;4940513;28;20671;-70
2022/03/07 04:50:10;;;;;;;0.00;0.00;;;;;;;;;;4948572;28;20219;-70
2022/03/07 04:52:37;;;;;;;0.00;0.00;;;;;;;;;;4944626;28;20210;-70
2022/03/07 04:55:05;;;;;;;0.00;0.00;;;;;;;;;;4945910;28;20238;-69
2022/03/07 04:57:34;;;;;;;0.00;0.00;;;;;;;;;;4941543;28;20640;-71
2022/03/07 05:00:01;;;;;;;0.20;0.20;;;;;;;;;;4942345;28;20199;-72
2022/03/07 05:02:28;;;;;;;0.27;0.20;;;;;;;;;;4938264;28;20202;-69
2022/03/07 05:04:56;;;;;;;0.00;0.00;;;;;;;;;;4940216;28;20214;-70
2022/03/07 05:07:24;;;;;;;0.00;0.00;;;;;;;;;;4942698;28;20207;-70
2022/03/07 05:09:51;;;;;;;0.00;0.00;;;;;;;;;;4947078;28;20792;-70
2022/03/07 05:12:19;;;;;;;0.30;0.30;;;;;;;;;;4948592;28;20221;-68
2022/03/07 05:14:47;;;;;;;0.00;0.00;;;;;;;;;;4943539;28;20219;-69
2022/03/07 05:17:15;;;;;;;0.00;0.00;;;;;;;;;;4945005;28;20199;-69
2022/03/07 05:19:43;;;;;;;0.00;0.00;;;;;;;;;;4945677;28;20684;-69
2022/03/07 05:22:10;;;;;;;0.00;0.00;;;;;;;;;;4950266;28;20215;-68
2022/03/07 05:24:38;;;;;;;0.00;0.00;;;;;;;;;;4950147;29;20231;-69
2022/03/07 05:27:05;;;;;;;0.00;0.00;;;;;;;;;;4946421;29;20538;-69
2022/03/07 05:29:33;;;;;;;0.00;0.00;;;;;;;;;;4946331;28;20249;-70
2022/03/07 05:32:02;;;;;;;0.00;0.00;;;;;;;;;;4939760;28;20298;-70
2022/03/07 05:34:30;;;;;;;0.00;0.00;;;;;;;;;;4938775;28;20253;-69
2022/03/07 05:36:57;;;;;;;0.30;0.30;;;;;;;;;;4939643;29;20303;-70
2022/03/07 05:39:25;;;;;;;0.00;0.00;;;;;;;;;;4938893;28;20688;-69
2022/03/07 05:41:52;;;;;;;0.00;0.00;;;;;;;;;;4935046;28;20840;-68
2022/03/07 05:44:19;;;;;;;0.00;0.00;;;;;;;;;;4939112;28;20203;-69
2022/03/07 05:46:47;;;;;;;0.00;0.00;;;;;;;;;;4940579;29;20204;-69
2022/03/07 05:49:15;;;;;;;0.00;0.00;;;;;;;;;;4938287;28;20200;-69
2022/03/07 05:51:44;;;;;;;0.00;0.00;;;;;;;;;;4937655;29;20242;-69
2022/03/07 05:54:11;;;;;;;0.00;0.00;;;;;;;;;;4942502;28;20787;-68
2022/03/07 05:56:38;;;;;;;0.00;0.00;;;;;;;;;;4942546;28;20583;-68
2022/03/07 05:59:06;;;;;;;0.17;0.17;;;;;;;;;;4939176;29;20210;-70
2022/03/07 06:01:33;;;;;;;0.00;0.00;;;;;;;;;;4940864;28;20214;-68
2022/03/07 06:04:00;;;;;;;0.00;0.00;;;;;;;;;;4944784;28;20251;-70
2022/03/07 06:06:29;;;;;;;0.00;0.00;;;;;;;;;;4943841;28;21024;-70
2022/03/07 06:08:57;;;;;;;0.00;0.00;;;;;;;;;;4941105;28;20210;-70
2022/03/07 06:11:24;;;;;;;0.00;0.00;;;;;;;;;;4948813;28;20231;-69
2022/03/07 06:13:51;;;;;;;0.00;0.00;;;;;;;;;;4945373;28;20573;-70
2022/03/07 06:16:19;;;;;;;0.57;0.57;;;;;;;;;;4944581;28;20679;-70
2022/03/07 06:18:46;;;;;;;0.00;0.00;;;;;;;;;;4943887;28;20337;-70
2022/03/07 06:21:14;;;;;;;0.00;0.00;;;;;;;;;;4949094;28;20680;-70
2022/03/07 06:23:43;;;;;;;0.00;0.00;;;;;;;;;;4947123;28;20207;-68
2022/03/07 06:26:11;;;;;;;0.00;0.00;;;;;;;;;;4952213;28;20604;-69
2022/03/07 06:28:38;;;;;;;0.00;0.00;;;;;;;;;;4941095;28;20199;-69
2022/03/07 06:31:05;;;;;;;0.00;0.00;;;;;;;;;;4943017;28;20223;-69
2022/03/07 06:33:34;;;;;;;0.00;0.00;;;;;;;;;;4945888;28;20203;-69
2022/03/07 06:36:01;;;;;;;0.00;0.00;;;;;;;;;;4944168;28;20204;-69
2022/03/07 06:38:29;;;;;;;0.40;0.40;;;;;;;;;;4940263;28;20584;-69
2022/03/07 06:40:57;;;;;;;0.00;0.00;;;;;;;;;;4941647;28;20195;-69
2022/03/07 06:43:25;;;;;;;0.10;0.10;;;;;;;;;;4941110;28;20206;-70
2022/03/07 06:45:54;;;;;;;0.10;0.10;;;;;;;;;;4945310;28;20207;-70
2022/03/07 06:48:22;;;;;;;0.00;0.00;;;;;;;;;;4944847;28;20676;-66
2022/03/07 06:50:49;;;;;;;0.00;0.00;;;;;;;;;;4946678;28;20704;-71
2022/03/07 06:53:17;;;;;;;0.00;0.00;;;;;;;;;;4942140;28;20644;-67
2022/03/07 06:55:44;;;;;;;0.00;0.00;;;;;;;;;;4943905;28;20203;-69
2022/03/07 06:58:13;;;;;;;1.53;1.43;;;;;;;;;;4940588;28;20195;-69
2022/03/07 07:00:40;;;;;;;0.00;0.00;;;;;;;;;;4941993;28;20207;-69
2022/03/07 07:03:08;;;;;;;0.10;0.10;;;;;;;;;;4944700;28;20206;-68
2022/03/07 07:05:35;;;;;;;0.10;0.10;;;;;;;;;;4946484;28;20199;-69
2022/03/07 07:08:02;;;;;;;0.00;0.00;;;;;;;;;;4945644;28;20778;-69
2022/03/07 07:10:30;;;;;;;0.30;0.30;;;;;;;;;;4946895;28;20235;-68
2022/03/07 07:12:57;;;;;;;0.40;0.37;;;;;;;;;;4941874;28;20211;-70
2022/03/07 07:15:26;;;;;;;0.70;0.43;;;;;;;;;;4944357;28;20206;-69
2022/03/07 07:17:54;;;;;;;0.73;0.73;;;;;;;;;;4942965;28;20203;-69
2022/03/07 07:20:21;;;;;;;1.23;0.47;;;;;;;;;;4943238;28;20585;-69
2022/03/07 07:22:48;;;;;;;0.27;0.27;;;;;;;;;;4940603;28;20209;-70
2022/03/07 07:25:16;;;;;;;0.10;0.10;;;;;;;;;;4942496;28;20195;-70
2022/03/07 07:27:43;;;;;;;0.70;0.67;;;;;;;;;;4937964;28;20199;-69
2022/03/07 07:30:11;;;;;;;1.80;1.70;;;;;;;;;;4942804;28;20211;-68
2022/03/07 07:32:40;;;;;;;1.53;1.20;;;;;;;;;;4944696;28;20211;-71
2022/03/07 07:35:08;;;;;;;0.77;0.77;;;;;;;;;;4936201;28;20199;-68
2022/03/07 07:37:36;;;;;;;2.10;1.37;;;;;;;;;;4940100;28;20237;-68
2022/03/07 07:40:05;;;;;;;0.53;0.53;;;;;;;;;;4941789;28;20610;-68
2022/03/07 07:42:32;;;;;;;1.13;0.83;;;;;;;;;;4942940;28;20734;-68
2022/03/07 07:45:00;;;;;;;0.90;0.73;;;;;;;;;;4942811;28;20214;-68
2022/03/07 07:47:27;;;;;;;1.50;1.37;;;;;;;;;;4947380;28;20893;-68
2022/03/07 07:49:56;;;;;;;1.93;1.83;;;;;;;;;;4951055;28;20210;-70
2022/03/07 07:52:23;;;;;;;0.13;0.13;;;;;;;;;;4949227;28;20242;-71
2022/03/07 07:54:51;;;;;;;1.17;1.17;;;;;;;;;;4946927;28;20752;-71
2022/03/07 07:57:18;;;;;;;2.40;1.33;;;;;;;;;;4946384;28;20681;-70
2022/03/07 07:59:46;;;;;;;2.70;2.33;;;;;;;;;;4947279;28;20583;-71
2022/03/07 08:02:13;;;;;;;1.30;1.00;;;;;;;;;;4944371;28;20278;-73
2022/03/07 08:04:41;;;;;;;0.67;0.67;;;;;;;;;;4951325;28;20624;-72
2022/03/07 08:07:10;;;;;;;2.83;2.63;;;;;;;;;;4951595;28;20299;-69
2022/03/07 08:09:38;;;;;;;2.90;2.63;;;;;;;;;;4952140;28;20601;-69
2022/03/07 08:12:06;;;;;;;0.20;0.20;;;;;;;;;;4964536;28;20239;-70
2022/03/07 08:14:33;;;;;;;1.70;1.60;;;;;;;;;;4960556;28;20538;-69
2022/03/07 08:17:01;;;;;;;3.83;2.63;;;;;;;;;;4951625;28;20219;-70
2022/03/07 08:19:28;;;;;;;1.57;1.47;;;;;;;;;;4950217;28;20282;-68
2022/03/07 08:21:55;;;;;;;1.67;1.57;;;;;;;;;;4942020;28;20218;-69
2022/03/07 08:24:25;;;;;;;3.60;3.03;;;;;;;;;;4941524;28;20203;-69
2022/03/07 08:26:53;;;;;;;3.77;2.07;;;;;;;;;;4939705;28;20191;-69
2022/03/07 08:29:20;;;;;;;3.43;2.83;;;;;;;;;;4937058;28;20207;-69
2022/03/07 08:31:48;;;;;;;1.50;1.37;;;;;;;;;;4942003;28;20369;-69
2022/03/07 08:34:16;;;;;;;0.77;0.43;;;;;;;;;;4942217;28;20362;-69
2022/03/07 08:36:43;;;;;;;2.43;2.23;;;;;;;;;;4943451;28;20926;-68
2022/03/07 08:39:11;;;;;;;2.10;1.93;;;;;;;;;;4943482;28;20210;-68
2022/03/07 08:41:40;;;;;;;4.57;2.83;;;;;;;;;;4941600;28;20603;-70
2022/03/07 08:44:07;;;;;;;1.23;1.20;;;;;;;;;;4940868;28;20721;-75
2022/03/07 08:46:35;;;;;;;2.87;1.93;;;;;;;;;;4944576;28;20213;-73
2022/03/07 08:49:02;;;;;;;2.70;2.03;;;;;;;;;;4944614;28;20572;-77
2022/03/07 08:51:30;;;;;;;2.67;2.37;;;;;;;;;;4943708;28;20246;-72
2022/03/07 08:53:57;;;;;;;1.17;0.97;;;;;;;;;;4948554;28;20231;-71
2022/03/07 08:56:25;;;;;;;1.03;0.97;;;;;;;;;;4951911;28;20206;-72
2022/03/07 08:58:54;;;;;;;4.03;3.07;;;;;;;;;;4951807;28;20691;-71
2022/03/07 09:01:21;;;;;;;3.33;2.47;;;;;;;;;;4951313;28;20214;-71
2022/03/07 09:03:48;;;;;;;4.57;2.23;;;;;;;;;;4947532;28;20238;-71
2022/03/07 09:06:16;;;;;;;1.00;0.87;;;;;;;;;;4944963;28;20221;-69
2022/03/07 09:08:43;;;;;;;1.37;1.10;;;;;;;;;;4946262;28;20230;-71
2022/03/07 09:11:11;;;;;;;1.20;1.10;;;;;;;;;;4945215;28;20585;-71
2022/03/07 09:13:38;;;;;;;4.07;2.10;;;;;;;;;;4945431;28;20210;-70
2022/03/07 09:16:07;;;;;;;4.07;2.27;;;;;;;;;;4943979;28;20207;-71
2022/03/07 09:18:34;;;;;;;2.00;1.83;;;;;;;;;;4943021;28;20214;-70
2022/03/07 09:21:02;;;;;;;2.07;1.70;;;;;;;;;;4943481;28;20213;-70
2022/03/07 09:23:33;;;;;;;1.67;1.57;;;;;;;;;;4944760;28;20203;-70
2022/03/07 09:26:00;;;;;;;3.57;2.13;;;;;;;;;;4943884;28;20206;-70
2022/03/07 09:28:28;;;;;;;1.77;1.63;;;;;;;;;;4940600;28;20873;-71
2022/03/07 09:30:55;;;;;;;2.87;1.73;;;;;;;;;;4945229;28;20238;-72
2022/03/07 09:33:24;;;;;;;1.50;1.40;;;;;;;;;;4944469;28;20210;-73
2022/03/07 09:35:51;;;;;;;3.40;1.63;;;;;;;;;;4947869;28;20215;-72
2022/03/07 09:38:19;;;;;;;1.20;0.87;;;;;;;;;;4943630;28;20214;-71
2022/03/07 09:40:47;;;;;;;2.23;2.03;;;;;;;;;;4950593;28;20217;-71
2022/03/07 09:43:15;;;;;;;1.50;1.40;;;;;;;;;;4944434;28;20194;-71
2022/03/07 09:45:43;;;;;;;5.10;1.60;;;;;;;;;;4945673;28;20265;-70
2022/03/07 09:48:12;;;;;;;1.67;1.57;;;;;;;;;;4945852;28;20265;-69
2022/03/07 09:50:41;;;;;;;1.60;1.50;;;;;;;;;;4938807;28;20318;-68
2022/03/07 09:53:09;;;;;;;19.47;3.73;;;;;;;;;;4944506;28;20207;-69
2022/03/07 09:55:37;;;;;;;2.20;1.97;;;;;;;;;;4947326;28;20241;-68
2022/03/07 09:58:05;;;;;;;3.07;2.33;;;;;;;;;;4944506;28;20203;-68
2022/03/07 10:00:33;;;;;;;2.70;2.47;;;;;;;;;;4944360;28;20211;-68
2022/03/07 10:03:04;;;;;;;0.63;0.60;;;;;;;;;;4944481;28;20201;-69
2022/03/07 10:05:34;;;;;;;1.30;1.20;;;;;;;;;;4945633;28;20207;-71
2022/03/07 10:08:03;;;;;;;3.07;2.27;;;;;;;;;;4944769;28;20704;-67
2022/03/07 10:10:31;;;;;;;3.80;3.40;;;;;;;;;;4943443;28;20211;-69
2022/03/07 10:12:58;;;;;;;2.83;2.47;;;;;;;;;;4947187;28;20221;-70
2022/03/07 10:15:26;;;;;;;1.40;0.90;;;;;;;;;;4943706;28;20302;-70
2022/03/07 10:17:54;;;;;;;3.40;2.47;;;;;;;;;;4943820;28;20203;-70
2022/03/07 10:20:22;;;;;;;2.27;2.07;;;;;;;;;;4940886;28;20432;-74
2022/03/07 10:22:50;;;;;;;2.53;2.27;;;;;;;;;;4940787;28;20207;-69
2022/03/07 10:25:22;;;;;;;2.47;1.70;;;;;;;;;;4945022;28;20212;-70
2022/03/07 10:27:50;;;;;;;0.87;0.70;;;;;;;;;;4943826;28;20305;-71
2022/03/07 10:30:20;;;;;;;2.43;2.07;;;;;;;;;;4941518;28;20273;-76
2022/03/07 10:32:53;;;;;;;3.90;2.63;;;;;;;;;;4943479;28;20215;-71
2022/03/07 10:35:25;;;;;;;2.90;2.43;;;;;;;;;;4944558;28;20785;-72
2022/03/07 10:37:56;;;;;;;3.50;3.00;;;;;;;;;;4942222;28;20717;-71
2022/03/07 10:40:25;;;;;;;3.90;2.33;;;;;;;;;;4941377;28;20199;-72
2022/03/07 10:42:53;;;;;;;1.43;1.33;;;;;;;;;;4941415;28;20681;-71
2022/03/07 10:45:21;;;;;;;0.83;0.83;;;;;;;;;;4950307;28;20207;-75
2022/03/07 10:47:52;;;;;;;5.00;3.70;;;;;;;;;;4950844;28;20199;-75
2022/03/07 10:50:21;;;;;;;1.77;0.67;;;;;;;;;;4950751;28;20287;-74
2022/03/07 10:52:48;;;;;;;3.53;2.93;;;;;;;;;;4947598;28;20241;-70
2022/03/07 10:55:16;;;;;;;2.30;2.10;;;;;;;;;;4949404;29;20710;-71
2022/03/07 10:57:44;;;;;;;1.37;1.17;;;;;;;;;;4943235;28;20198;-67
2022/03/07 11:00:13;;;;;;;1.77;1.67;;;;;;;;;;4946648;28;20202;-74
2022/03/07 11:02:42;;;;;;;1.80;1.70;;;;;;;;;;4953810;28;20206;-69
2022/03/07 11:05:10;;;;;;;2.13;1.93;;;;;;;;;;4961820;28;20628;-67
2022/03/07 11:07:42;;;;;;;1.40;1.30;;;;;;;;;;4964127;28;20198;-70
2022/03/07 11:10:11;;;;;;;1.73;1.33;;;;;;;;;;4961516;28;20290;-69
2022/03/07 11:12:38;;;;;;;1.80;1.70;;;;;;;;;;4946013;28;20235;-69
2022/03/07 11:15:09;;;;;;;2.57;2.37;;;;;;;;;;4950414;28;20198;-65
2022/03/07 11:17:39;;;;;;;0.53;0.53;;;;;;;;;;4951244;28;20250;-68
2022/03/07 11:20:07;;;;;;;1.43;1.27;;;;;;;;;;4948678;28;20666;-66
2022/03/07 11:22:35;;;;;;;1.80;1.60;;;;;;;;;;4947534;28;20191;-68
2022/03/07 11:25:04;;;;;;;1.63;1.53;;;;;;;;;;4948570;28;20218;-70
2022/03/07 11:27:32;;;;;;;1.10;1.00;;;;;;;;;;4948729;28;20199;-69
2022/03/07 11:30:00;;;;;;;2.53;2.33;;;;;;;;;;4944998;28;20202;-67
2022/03/07 11:32:38;;;;;;;2.47;1.27;;;;;;;;;;4943425;28;20277;-69
2022/03/07 11:35:06;;;;;;;1.97;1.60;;;;;;;;;;4945223;28;20198;-68
2022/03/07 11:37:34;;;;;;;1.30;1.20;;;;;;;;;;4949204;28;20195;-68
2022/03/07 11:40:02;;;;;;;1.33;1.20;;;;;;;;;;4943807;28;20199;-68
2022/03/07 11:42:37;;;;;;;1.57;1.47;;;;;;;;;;4940648;28;20743;-66
2022/03/07 11:45:06;;;;;;;2.53;2.30;;;;;;;;;;4942676;28;20191;-67
2022/03/07 11:47:38;;;;;;;0.60;0.60;;;;;;;;;;4942210;28;20289;-68
2022/03/07 11:50:08;;;;;;;1.90;1.43;;;;;;;;;;4942294;28;20194;-67
2022/03/07 11:52:35;;;;;;;2.00;1.90;;;;;;;;;;4944450;28;20227;-69
2022/03/07 11:55:04;;;;;;;1.40;1.17;;;;;;;;;;4946726;28;20226;-68
2022/03/07 11:57:33;;;;;;;2.80;2.53;;;;;;;;;;4953253;28;20282;-68
2022/03/07 12:00:12;;;;;;;0.80;0.80;;;;;;;;;;4945491;28;20574;-67
2022/03/07 12:02:42;;;;;;;2.00;1.57;;;;;;;;;;4944148;28;20197;-68
2022/03/07 12:05:20;;;;;;;1.83;1.17;;;;;;;;;;4940829;28;20600;-68
2022/03/07 12:07:47;;;;;;;2.53;1.50;;;;;;;;;;4939543;28;20213;-68
2022/03/07 12:10:15;;;;;;;0.93;0.77;;;;;;;;;;4945825;28;20191;-68
2022/03/07 12:12:42;;;;;;;0.90;0.90;;;;;;;;;;4952250;28;20239;-69
2022/03/07 12:15:11;;;;;;;0.33;0.33;;;;;;;;;;4946393;28;20697;-69
2022/03/07 12:17:38;;;;;;;2.30;1.83;;;;;;;;;;4941249;28;20207;-66
2022/03/07 12:20:08;;;;;;;2.80;2.10;;;;;;;;;;4943423;28;20207;-69
2022/03/07 12:22:35;;;;;;;1.97;1.77;;;;;;;;;;4940220;28;20668;-68
2022/03/07 12:25:06;;;;;;;2.00;1.90;;;;;;;;;;4943555;28;20222;-68
2022/03/07 12:27:37;;;;;;;2.53;2.23;;;;;;;;;;4948651;28;20203;-68
2022/03/07 12:30:05;;;;;;;0.77;0.60;;;;;;;;;;4946106;28;20257;-68
2022/03/07 12:32:33;;;;;;;0.77;0.43;;;;;;;;;;4949002;28;20237;-69
2022/03/07 12:35:00;;;;;;;2.90;0.90;;;;;;;;;;4948667;29;20898;-67
2022/03/07 12:37:29;;;;;;;2.57;2.20;;;;;;;;;;4950844;29;20245;-68
2022/03/07 12:39:58;;;;;;;1.27;1.17;;;;;;;;;;4945583;29;20688;-68
2022/03/07 12:42:27;;;;;;;1.43;1.33;;;;;;;;;;4951409;29;20199;-68
2022/03/07 12:44:55;;;;;;;1.20;0.73;;;;;;;;;;4946341;29;20333;-67
2022/03/07 12:47:27;;;;;;;1.30;1.20;;;;;;;;;;4946850;29;20235;-68
2022/03/07 12:49:54;;;;;;;1.50;1.17;;;;;;;;;;4944296;28;20287;-70
2022/03/07 12:52:26;;;;;;;1.90;1.70;;;;;;;;;;4950191;28;20222;-68
2022/03/07 12:54:57;;;;;;;1.37;1.27;;;;;;;;;;4944676;28;20235;-67
2022/03/07 12:57:25;;;;;;;1.60;1.27;;;;;;;;;;4947251;28;20643;-67
2022/03/07 12:59:57;;;;;;;1.80;1.20;;;;;;;;;;4951209;28;20207;-68
2022/03/07 13:02:24;;;;;;;1.70;1.30;;;;;;;;;;4945634;29;20692;-67
2022/03/07 13:04:55;;;;;;;3.70;2.30;;;;;;;;;;4945664;29;20206;-67
2022/03/07 13:07:25;;;;;;;2.43;1.90;;;;;;;;;;4946119;28;20779;-68
2022/03/07 13:09:53;;;;;;;1.80;1.70;;;;;;;;;;4943700;29;20203;-67
2022/03/07 13:12:22;;;;;;;0.73;0.73;;;;;;;;;;4945599;28;20238;-70
2022/03/07 13:14:49;;;;;;;1.47;1.37;;;;;;;;;;4946219;28;20290;-72
2022/03/07 13:17:18;;;;;;;3.00;1.90;;;;;;;;;;4939139;28;20205;-66
2022/03/07 13:19:47;;;;;;;0.40;0.40;;;;;;;;;;4946901;28;20207;-68
2022/03/07 13:22:14;;;;;;;4.13;2.80;;;;;;;;;;4945343;29;20199;-66
2022/03/07 13:24:42;;;;;;;2.13;1.50;;;;;;;;;;4942282;29;20206;-69
2022/03/07 13:27:10;;;;;;;2.47;1.80;;;;;;;;;;4949392;29;20210;-68
2022/03/07 13:29:41;;;;;;;1.27;0.90;;;;;;;;;;4949260;28;20553;-69
2022/03/07 13:32:10;;;;;;;2.30;2.10;;;;;;;;;;4947648;28;20211;-68
2022/03/07 13:34:48;;;;;;;1.90;1.43;;;;;;;;;;4948267;28;20210;-67
2022/03/07 13:37:16;;;;;;;2.20;1.33;;;;;;;;;;4947422;28;20231;-66
2022/03/07 13:39:44;;;;;;;2.07;1.87;;;;;;;;;;4947059;29;20207;-68
2022/03/07 13:42:12;;;;;;;1.97;1.87;;;;;;;;;;4949909;29;20231;-71
2022/03/07 13:44:51;;;;;;;0.50;0.40;;;;;;;;;;4947464;29;20691;-69
2022/03/07 13:47:19;;;;;;;1.60;1.43;;;;;;;;;;4944322;28;20222;-70
2022/03/07 13:49:47;;;;;;;0.83;0.70;;;;;;;;;;4946237;28;20199;-69
2022/03/07 13:52:16;;;;;;;0.97;0.97;;;;;;;;;;4948883;29;20572;-71
2022/03/07 13:54:44;;;;;;;0.53;0.53;;;;;;;;;;4949081;29;20236;-70
2022/03/07 13:57:12;;;;;;;2.53;2.13;;;;;;;;;;4942089;28;20204;-70
2022/03/07 13:59:40;;;;;;;1.83;1.13;;;;;;;;;;4944138;28;20771;-70
2022/03/07 14:02:16;;;;;;;1.70;1.50;;;;;;;;;;4946388;28;20214;-68
2022/03/07 14:04:56;;;;;;;0.93;0.93;;;;;;;;;;4942930;28;20217;-71
2022/03/07 14:07:24;;;;;;;1.97;1.87;;;;;;;;;;4944989;28;20574;-68
2022/03/07 14:09:52;;;;;;;0.90;0.73;;;;;;;;;;4945763;28;20211;-72
2022/03/07 14:12:30;;;;;;;0.53;0.53;;;;;;;;;;4947628;28;20203;-70
2022/03/07 14:14:59;;;;;;;0.80;0.80;;;;;;;;;;4944979;28;20205;-72
2022/03/07 14:17:28;;;;;;;1.90;1.40;;;;;;;;;;4944833;28;20684;-72
2022/03/07 14:19:56;;;;;;;0.90;0.50;;;;;;;;;;4942861;28;20210;-73
2022/03/07 14:22:24;;;;;;;1.00;0.90;;;;;;;;;;4943539;28;20293;-72
2022/03/07 14:24:52;;;;;;;1.73;1.60;;;;;;;;;;4941068;28;20211;-70
2022/03/07 14:27:19;;;;;;;0.50;0.50;;;;;;;;;;4945617;28;20557;-70
2022/03/07 14:29:47;;;;;;;0.00;0.00;;;;;;;;;;4944558;28;20653;-69
2022/03/07 14:32:14;;;;;;;2.60;1.93;;;;;;;;;;4945545;29;20208;-69
2022/03/07 14:34:43;;;;;;;0.73;0.73;;;;;;;;;;4940824;28;20258;-72
2022/03/07 14:37:10;;;;;;;2.13;0.83;;;;;;;;;;4943783;28;20635;-72
2022/03/07 14:39:38;;;;;;;0.70;0.67;;;;;;;;;;4944433;28;20294;-71
2022/03/07 14:42:05;;;;;;;0.50;0.50;;;;;;;;;;4945916;28;20262;-72
2022/03/07 14:44:33;;;;;;;2.07;1.37;;;;;;;;;;4945214;28;20219;-71
2022/03/07 14:47:00;;;;;;;1.90;1.23;;;;;;;;;;4944822;28;20306;-75
2022/03/07 14:49:28;;;;;;;1.87;1.63;;;;;;;;;;4943258;28;20207;-69